createdAt,value
2017-07-07T00:00:36.500Z,100274
2017-07-07T00:01:36.820Z,100257
2017-07-07T00:02:37.583Z,100258
2017-07-07T00:03:36.712Z,100250
2017-07-07T00:04:36.763Z,100249
2017-07-07T00:05:38.441Z,100251
2017-07-07T00:06:36.899Z,100250
2017-07-07T00:07:38.115Z,100248
2017-07-07T00:08:36.860Z,100255
2017-07-07T00:09:36.928Z,100252
2017-07-07T00:10:37.000Z,100247
2017-07-07T00:11:38.037Z,100230
2017-07-07T00:12:38.837Z,100236
2017-07-07T00:13:37.554Z,100234
2017-07-07T00:14:39.012Z,100236
2017-07-07T00:15:38.382Z,100226
2017-07-07T00:16:38.350Z,100235
2017-07-07T00:17:37.489Z,100233
2017-07-07T00:18:37.509Z,100229
2017-07-07T00:19:38.863Z,100227
2017-07-07T00:20:37.587Z,100221
2017-07-07T00:21:38.584Z,100220
2017-07-07T00:22:38.662Z,100214
2017-07-07T00:23:37.793Z,100221
2017-07-07T00:24:38.703Z,100219
2017-07-07T00:25:39.782Z,100208
2017-07-07T00:26:39.545Z,100219
2017-07-07T00:27:37.999Z,100216
2017-07-07T00:28:38.997Z,100221
2017-07-07T00:29:38.010Z,100222
2017-07-07T00:30:38.055Z,100217
2017-07-07T00:31:38.374Z,100222
2017-07-07T00:32:38.241Z,100221
2017-07-07T00:33:39.937Z,100218
2017-07-07T00:34:39.202Z,100216
2017-07-07T00:35:39.979Z,100219
2017-07-07T00:36:38.394Z,100220
2017-07-07T00:37:38.726Z,100221
2017-07-07T00:38:38.430Z,100217
2017-07-07T00:39:40.143Z,100218
2017-07-07T00:40:39.527Z,100218
2017-07-07T00:41:39.506Z,100213
2017-07-07T00:42:38.686Z,100211
2017-07-07T00:43:39.021Z,100208
2017-07-07T00:44:38.767Z,100202
2017-07-07T00:45:40.483Z,100206
2017-07-07T00:46:38.877Z,100203
2017-07-07T00:47:39.863Z,100204
2017-07-07T00:48:40.582Z,100195
2017-07-07T00:49:39.200Z,100208
2017-07-07T00:50:40.656Z,100205
2017-07-07T00:51:39.051Z,100202
2017-07-07T00:52:40.773Z,100196
2017-07-07T00:53:39.079Z,100195
2017-07-07T00:54:40.858Z,100194
2017-07-07T00:55:39.502Z,100193
2017-07-07T00:56:40.260Z,100187
2017-07-07T00:57:39.299Z,100191
2017-07-07T00:58:39.354Z,100184
2017-07-07T00:59:39.409Z,100182
2017-07-07T01:00:41.123Z,100167
2017-07-07T01:01:39.760Z,100180
2017-07-07T01:02:39.434Z,100179
2017-07-07T01:03:40.456Z,100175
2017-07-07T01:04:39.539Z,100177
2017-07-07T01:05:39.550Z,100168
2017-07-07T01:06:41.300Z,100181
2017-07-07T01:07:40.953Z,100171
2017-07-07T01:08:41.388Z,100163
2017-07-07T01:09:39.812Z,100171
2017-07-07T01:10:40.798Z,100171
2017-07-07T01:11:40.922Z,100176
2017-07-07T01:12:39.985Z,100173
2017-07-07T01:13:40.275Z,100165
2017-07-07T01:14:40.101Z,100169
2017-07-07T01:15:41.066Z,100162
2017-07-07T01:16:40.099Z,100162
2017-07-07T01:17:40.105Z,100164
2017-07-07T01:18:41.114Z,100164
2017-07-07T01:19:41.451Z,100158
2017-07-07T01:20:40.382Z,100159
2017-07-07T01:21:41.397Z,100159
2017-07-07T01:22:40.380Z,100149
2017-07-07T01:23:41.399Z,100160
2017-07-07T01:24:40.552Z,100160
2017-07-07T01:25:40.818Z,100164
2017-07-07T01:26:41.535Z,100161
2017-07-07T01:27:40.538Z,100160
2017-07-07T01:28:42.330Z,100166
2017-07-07T01:29:40.739Z,100157
2017-07-07T01:30:40.715Z,100162
2017-07-07T01:31:41.141Z,100157
2017-07-07T01:32:40.957Z,100155
2017-07-07T01:33:40.975Z,100150
2017-07-07T01:34:41.929Z,100147
2017-07-07T01:35:42.689Z,100144
2017-07-07T01:36:41.026Z,100151
2017-07-07T01:37:43.027Z,100151
2017-07-07T01:38:42.121Z,100142
2017-07-07T01:39:41.175Z,100147
2017-07-07T01:40:41.211Z,100149
2017-07-07T01:41:41.346Z,100134
2017-07-07T01:42:43.073Z,100140
2017-07-07T01:43:41.642Z,100138
2017-07-07T01:44:43.122Z,100131
2017-07-07T01:45:41.537Z,100129
2017-07-07T01:46:42.590Z,100132
2017-07-07T01:47:43.335Z,100131
2017-07-07T01:48:41.721Z,100131
2017-07-07T01:49:42.952Z,100126
2017-07-07T01:50:43.427Z,100124
2017-07-07T01:51:41.827Z,100125
2017-07-07T01:52:41.820Z,100123
2017-07-07T01:53:43.593Z,100119
2017-07-07T01:54:42.942Z,100117
2017-07-07T01:55:42.344Z,100113
2017-07-07T01:56:43.040Z,100108
2017-07-07T01:57:42.060Z,100110
2017-07-07T01:58:43.043Z,100099
2017-07-07T01:59:43.127Z,100107
2017-07-07T02:00:42.143Z,100105
2017-07-07T02:01:43.599Z,100109
2017-07-07T02:02:43.993Z,100111
2017-07-07T02:03:43.377Z,100106
2017-07-07T02:04:42.409Z,100105
2017-07-07T02:05:43.471Z,100100
2017-07-07T02:06:42.469Z,100086
2017-07-07T02:07:43.750Z,100096
2017-07-07T02:08:44.188Z,100090
2017-07-07T02:09:43.477Z,100087
2017-07-07T02:10:42.547Z,100085
2017-07-07T02:11:44.271Z,100084
2017-07-07T02:12:42.658Z,100081
2017-07-07T02:13:44.652Z,100078
2017-07-07T02:14:44.408Z,100078
2017-07-07T02:15:43.782Z,100073
2017-07-07T02:16:42.922Z,100079
2017-07-07T02:17:42.993Z,100083
2017-07-07T02:18:44.711Z,100068
2017-07-07T02:19:45.093Z,100076
2017-07-07T02:20:44.861Z,100072
2017-07-07T02:21:44.940Z,100064
2017-07-07T02:22:44.282Z,100063
2017-07-07T02:23:43.295Z,100061
2017-07-07T02:24:44.402Z,100061
2017-07-07T02:25:44.328Z,100073
2017-07-07T02:26:43.677Z,100082
2017-07-07T02:27:44.685Z,100073
2017-07-07T02:28:45.493Z,100086
2017-07-07T02:29:43.847Z,100088
2017-07-07T02:30:45.549Z,100092
2017-07-07T02:31:45.751Z,100097
2017-07-07T02:32:45.561Z,100094
2017-07-07T02:33:43.765Z,100098
2017-07-07T02:34:44.610Z,100108
2017-07-07T02:35:45.557Z,100106
2017-07-07T02:36:45.603Z,100111
2017-07-07T02:37:45.123Z,100119
2017-07-07T02:38:45.710Z,100126
2017-07-07T02:39:44.118Z,100124
2017-07-07T02:40:44.084Z,100135
2017-07-07T02:41:44.150Z,100116
2017-07-07T02:42:44.231Z,100116
2017-07-07T02:43:46.271Z,100107
2017-07-07T02:44:45.966Z,100106
2017-07-07T02:45:44.375Z,100103
2017-07-07T02:46:44.537Z,100102
2017-07-07T02:47:44.500Z,100091
2017-07-07T02:48:44.626Z,100101
2017-07-07T02:49:46.656Z,100087
2017-07-07T02:50:46.484Z,100094
2017-07-07T02:51:44.689Z,100089
2017-07-07T02:52:45.916Z,100102
2017-07-07T02:53:44.812Z,100103
2017-07-07T02:54:46.555Z,100105
2017-07-07T02:55:45.138Z,100104
2017-07-07T02:56:45.942Z,100109
2017-07-07T02:57:44.931Z,100109
2017-07-07T02:58:44.869Z,100112
2017-07-07T02:59:45.746Z,100106
2017-07-07T03:00:45.677Z,100117
2017-07-07T03:01:46.321Z,100122
2017-07-07T03:02:45.235Z,100116
2017-07-07T03:03:45.345Z,100136
2017-07-07T03:04:45.528Z,100131
2017-07-07T03:05:46.555Z,100141
2017-07-07T03:06:45.669Z,100141
2017-07-07T03:07:46.081Z,100149
2017-07-07T03:08:47.410Z,100141
2017-07-07T03:09:47.579Z,100152
2017-07-07T03:10:47.596Z,100148
2017-07-07T03:11:47.656Z,100148
2017-07-07T03:12:45.799Z,100154
2017-07-07T03:13:46.170Z,100157
2017-07-07T03:14:45.867Z,100164
2017-07-07T03:15:47.566Z,100162
2017-07-07T03:16:46.845Z,100165
2017-07-07T03:17:45.883Z,100154
2017-07-07T03:18:45.954Z,100143
2017-07-07T03:19:46.346Z,100151
2017-07-07T03:20:46.116Z,100150
2017-07-07T03:21:46.134Z,100151
2017-07-07T03:22:46.107Z,100152
2017-07-07T03:23:46.244Z,100157
2017-07-07T03:24:47.967Z,100155
2017-07-07T03:25:46.570Z,100172
2017-07-07T03:26:47.252Z,100172
2017-07-07T03:27:46.365Z,100183
2017-07-07T03:28:47.132Z,100185
2017-07-07T03:29:48.173Z,100182
2017-07-07T03:30:48.240Z,100181
2017-07-07T03:31:46.921Z,100183
2017-07-07T03:32:48.334Z,100183
2017-07-07T03:33:48.391Z,100173
2017-07-07T03:34:48.437Z,100180
2017-07-07T03:35:47.696Z,100179
2017-07-07T03:36:47.763Z,100190
2017-07-07T03:37:47.108Z,100182
2017-07-07T03:38:47.783Z,100173
2017-07-07T03:39:47.919Z,100176
2017-07-07T03:40:47.932Z,100176
2017-07-07T03:41:46.998Z,100173
2017-07-07T03:42:48.026Z,100178
2017-07-07T03:43:49.596Z,100181
2017-07-07T03:44:47.161Z,100200
2017-07-07T03:45:48.803Z,100210
2017-07-07T03:46:48.820Z,100221
2017-07-07T03:47:47.178Z,100219
2017-07-07T03:48:48.898Z,100232
2017-07-07T03:49:48.580Z,100237
2017-07-07T03:50:48.088Z,100241
2017-07-07T03:51:49.055Z,100233
2017-07-07T03:52:47.381Z,100238
2017-07-07T03:53:49.109Z,100230
2017-07-07T03:54:47.517Z,100213
2017-07-07T03:55:47.804Z,100215
2017-07-07T03:56:47.607Z,100218
2017-07-07T03:57:49.337Z,100206
2017-07-07T03:58:49.405Z,100207
2017-07-07T03:59:48.791Z,100207
2017-07-07T04:00:47.879Z,100203
2017-07-07T04:01:48.131Z,100200
2017-07-07T04:02:48.888Z,100193
2017-07-07T04:03:48.049Z,100200
2017-07-07T04:04:48.065Z,100206
2017-07-07T04:05:48.181Z,100205
2017-07-07T04:06:49.188Z,100204
2017-07-07T04:07:50.235Z,100204
2017-07-07T04:08:49.900Z,100201
2017-07-07T04:09:50.563Z,100195
2017-07-07T04:10:48.389Z,100197
2017-07-07T04:11:49.351Z,100198
2017-07-07T04:12:48.504Z,100204
2017-07-07T04:13:48.814Z,100195
2017-07-07T04:14:48.499Z,100195
2017-07-07T04:15:48.596Z,100185
2017-07-07T04:16:50.333Z,100194
2017-07-07T04:17:48.620Z,100184
2017-07-07T04:18:48.720Z,100187
2017-07-07T04:19:50.660Z,100183
2017-07-07T04:20:49.758Z,100182
2017-07-07T04:21:50.499Z,100176
2017-07-07T04:22:50.540Z,100171
2017-07-07T04:23:48.929Z,100159
2017-07-07T04:24:48.956Z,100151
2017-07-07T04:25:50.915Z,100158
2017-07-07T04:26:49.013Z,100155
2017-07-07T04:27:50.863Z,100158
2017-07-07T04:28:50.841Z,100152
2017-07-07T04:29:49.212Z,100155
2017-07-07T04:30:49.247Z,100151
2017-07-07T04:31:51.209Z,100150
2017-07-07T04:32:50.217Z,100156
2017-07-07T04:33:50.289Z,100157
2017-07-07T04:34:49.446Z,100158
2017-07-07T04:35:49.458Z,100166
2017-07-07T04:36:51.151Z,100163
2017-07-07T04:37:51.467Z,100169
2017-07-07T04:38:49.585Z,100169
2017-07-07T04:39:51.288Z,100174
2017-07-07T04:40:51.378Z,100174
2017-07-07T04:41:51.355Z,100170
2017-07-07T04:42:50.691Z,100164
2017-07-07T04:43:51.866Z,100160
2017-07-07T04:44:51.502Z,100153
2017-07-07T04:45:50.809Z,100166
2017-07-07T04:46:50.806Z,100167
2017-07-07T04:47:50.801Z,100170
2017-07-07T04:48:49.955Z,100167
2017-07-07T04:49:50.279Z,100165
2017-07-07T04:50:50.964Z,100165
2017-07-07T04:51:50.057Z,100163
2017-07-07T04:52:51.728Z,100160
2017-07-07T04:53:51.831Z,100159
2017-07-07T04:54:50.247Z,100147
2017-07-07T04:55:50.603Z,100154
2017-07-07T04:56:50.319Z,100146
2017-07-07T04:57:50.426Z,100157
2017-07-07T04:58:50.396Z,100156
2017-07-07T04:59:50.454Z,100149
2017-07-07T05:00:52.214Z,100155
2017-07-07T05:01:50.829Z,100144
2017-07-07T05:02:50.650Z,100150
2017-07-07T05:03:51.666Z,100151
2017-07-07T05:04:50.671Z,100153
2017-07-07T05:05:52.492Z,100161
2017-07-07T05:06:50.808Z,100151
2017-07-07T05:07:52.211Z,100146
2017-07-07T05:08:51.003Z,100155
2017-07-07T05:09:51.063Z,100156
2017-07-07T05:10:51.071Z,100142
2017-07-07T05:11:51.203Z,100149
2017-07-07T05:12:51.264Z,100148
2017-07-07T05:13:52.592Z,100148
2017-07-07T05:14:51.361Z,100146
2017-07-07T05:15:52.348Z,100142
2017-07-07T05:16:51.412Z,100144
2017-07-07T05:17:51.443Z,100139
2017-07-07T05:18:51.611Z,100138
2017-07-07T05:19:53.606Z,100143
2017-07-07T05:20:51.643Z,100145
2017-07-07T05:21:53.343Z,100147
2017-07-07T05:22:51.666Z,100138
2017-07-07T05:23:52.631Z,100144
2017-07-07T05:24:53.402Z,100133
2017-07-07T05:25:52.054Z,100146
2017-07-07T05:26:51.736Z,100143
2017-07-07T05:27:53.474Z,100140
2017-07-07T05:28:51.789Z,100141
2017-07-07T05:29:53.522Z,100146
2017-07-07T05:30:53.525Z,100140
2017-07-07T05:31:54.639Z,100143
2017-07-07T05:32:51.969Z,100146
2017-07-07T05:33:52.018Z,100143
2017-07-07T05:34:52.017Z,100140
2017-07-07T05:35:52.118Z,100140
2017-07-07T05:36:52.160Z,100132
2017-07-07T05:37:52.466Z,100132
2017-07-07T05:38:52.146Z,100131
2017-07-07T05:39:52.212Z,100133
2017-07-07T05:40:53.230Z,100120
2017-07-07T05:41:53.322Z,100130
2017-07-07T05:42:54.125Z,100127
2017-07-07T05:43:52.738Z,100125
2017-07-07T05:44:53.475Z,100119
2017-07-07T05:45:53.469Z,100127
2017-07-07T05:46:54.222Z,100123
2017-07-07T05:47:54.248Z,100127
2017-07-07T05:48:52.605Z,100124
2017-07-07T05:49:54.712Z,100113
2017-07-07T05:50:54.452Z,100118
2017-07-07T05:51:53.740Z,100118
2017-07-07T05:52:52.811Z,100117
2017-07-07T05:53:53.872Z,100117
2017-07-07T05:54:53.816Z,100106
2017-07-07T05:55:54.208Z,100117
2017-07-07T05:56:54.566Z,100120
2017-07-07T05:57:53.911Z,100119
2017-07-07T05:58:52.955Z,100118
2017-07-07T05:59:54.681Z,100113
2017-07-07T06:00:53.160Z,100116
2017-07-07T06:01:54.507Z,100117
2017-07-07T06:02:54.151Z,100120
2017-07-07T06:03:53.242Z,100120
2017-07-07T06:04:53.242Z,100116
2017-07-07T06:05:54.014Z,100115
2017-07-07T06:06:53.312Z,100119
2017-07-07T06:07:53.684Z,100114
2017-07-07T06:08:55.159Z,100103
2017-07-07T06:09:53.625Z,100098
2017-07-07T06:10:55.318Z,100111
2017-07-07T06:11:55.411Z,100114
2017-07-07T06:12:53.813Z,100120
2017-07-07T06:13:54.085Z,100120
2017-07-07T06:14:53.874Z,100117
2017-07-07T06:15:53.947Z,100111
2017-07-07T06:16:55.617Z,100109
2017-07-07T06:17:54.016Z,100121
2017-07-07T06:18:55.740Z,100108
2017-07-07T06:19:55.083Z,100112
2017-07-07T06:20:54.879Z,100111
2017-07-07T06:21:54.972Z,100113
2017-07-07T06:22:56.582Z,100113
2017-07-07T06:23:56.141Z,100117
2017-07-07T06:24:54.491Z,100112
2017-07-07T06:25:56.486Z,100116
2017-07-07T06:26:56.263Z,100116
2017-07-07T06:27:54.573Z,100114
2017-07-07T06:28:54.698Z,100108
2017-07-07T06:29:55.665Z,100120
2017-07-07T06:30:54.781Z,100119
2017-07-07T06:31:55.044Z,100120
2017-07-07T06:32:54.901Z,100121
2017-07-07T06:33:55.918Z,100121
2017-07-07T06:34:55.076Z,100121
2017-07-07T06:35:55.985Z,100126
2017-07-07T06:36:55.080Z,100114
2017-07-07T06:37:57.155Z,100119
2017-07-07T06:38:55.264Z,100122
2017-07-07T06:39:56.913Z,100120
2017-07-07T06:40:56.298Z,100127
2017-07-07T06:41:56.311Z,100124
2017-07-07T06:42:57.037Z,100130
2017-07-07T06:43:57.378Z,100129
2017-07-07T06:44:55.457Z,100125
2017-07-07T06:45:55.496Z,100118
2017-07-07T06:46:57.229Z,100130
2017-07-07T06:47:55.624Z,100127
2017-07-07T06:48:56.624Z,100127
2017-07-07T06:49:55.919Z,100119
2017-07-07T06:50:58.134Z,100129
2017-07-07T06:51:57.524Z,100122
2017-07-07T06:52:55.905Z,100130
2017-07-07T06:53:55.901Z,100130
2017-07-07T06:54:57.629Z,100130
2017-07-07T06:55:56.334Z,100132
2017-07-07T06:56:57.721Z,100132
2017-07-07T06:57:57.143Z,100134
2017-07-07T06:58:57.916Z,100134
2017-07-07T06:59:56.315Z,100132
2017-07-07T07:00:56.231Z,100139
2017-07-07T07:01:56.642Z,100130
2017-07-07T07:02:57.288Z,100131
2017-07-07T07:03:56.362Z,100142
2017-07-07T07:04:56.406Z,100134
2017-07-07T07:05:56.470Z,100139
2017-07-07T07:06:56.564Z,100140
2017-07-07T07:07:58.512Z,100152
2017-07-07T07:08:56.592Z,100148
2017-07-07T07:09:56.673Z,100135
2017-07-07T07:10:57.592Z,100146
2017-07-07T07:11:59.037Z,100144
2017-07-07T07:12:58.496Z,100148
2017-07-07T07:14:00.112Z,100152
2017-07-07T07:14:59.179Z,100152
2017-07-07T07:15:57.081Z,100142
2017-07-07T07:16:58.708Z,100153
2017-07-07T07:17:57.038Z,100157
2017-07-07T07:18:57.072Z,100143
2017-07-07T07:19:57.450Z,100159
2017-07-07T07:20:57.139Z,100156
2017-07-07T07:21:58.843Z,100138
2017-07-07T07:22:58.030Z,100151
2017-07-07T07:23:59.018Z,100153
2017-07-07T07:24:59.009Z,100150
2017-07-07T07:25:58.596Z,100145
2017-07-07T07:26:58.412Z,100138
2017-07-07T07:27:58.407Z,100149
2017-07-07T07:28:57.583Z,100147
2017-07-07T07:29:59.519Z,100147
2017-07-07T07:30:57.709Z,100148
2017-07-07T07:31:58.945Z,100149
2017-07-07T07:32:58.715Z,100151
2017-07-07T07:33:58.404Z,100152
2017-07-07T07:34:57.916Z,100156
2017-07-07T07:35:57.888Z,100158
2017-07-07T07:36:59.789Z,100158
2017-07-07T07:37:59.819Z,100162
2017-07-07T07:38:57.969Z,100161
2017-07-07T07:39:58.952Z,100163
2017-07-07T07:40:58.018Z,100161
2017-07-07T07:41:58.111Z,100157
2017-07-07T07:42:58.143Z,100166
2017-07-07T07:43:59.477Z,100166
2017-07-07T07:44:58.913Z,100173
2017-07-07T07:45:59.019Z,100170
2017-07-07T07:46:58.334Z,100178
2017-07-07T07:48:00.064Z,100167
2017-07-07T07:48:59.743Z,100168
2017-07-07T07:50:00.488Z,100174
2017-07-07T07:51:00.180Z,100174
2017-07-07T07:51:59.839Z,100174
2017-07-07T07:52:58.578Z,100167
2017-07-07T07:53:58.649Z,100181
2017-07-07T07:55:00.905Z,100184
2017-07-07T07:56:02.501Z,100178
2017-07-07T07:57:00.501Z,100173
2017-07-07T07:57:58.858Z,100181
2017-07-07T07:58:58.886Z,100176
2017-07-07T07:59:58.980Z,100179
2017-07-07T08:01:01.270Z,100174
2017-07-07T08:01:59.321Z,100175
2017-07-07T08:03:00.733Z,100170
2017-07-07T08:04:01.311Z,100170
2017-07-07T08:05:02.016Z,100166
2017-07-07T08:06:00.438Z,100168
2017-07-07T08:07:00.753Z,100171
2017-07-07T08:08:00.215Z,100170
2017-07-07T08:09:00.398Z,100166
2017-07-07T08:09:59.510Z,100159
2017-07-07T08:11:00.082Z,100162
2017-07-07T08:12:01.765Z,100156
2017-07-07T08:13:00.601Z,100167
2017-07-07T08:14:02.283Z,100158
2017-07-07T08:15:01.517Z,100163
2017-07-07T08:16:02.607Z,100172
2017-07-07T08:17:00.804Z,100163
2017-07-07T08:18:02.394Z,100162
2017-07-07T08:19:00.953Z,100163
2017-07-07T08:20:02.178Z,100161
2017-07-07T08:21:02.818Z,100165
2017-07-07T08:22:02.379Z,100160
2017-07-07T08:23:01.336Z,100162
2017-07-07T08:24:00.202Z,100152
2017-07-07T08:25:01.478Z,100158
2017-07-07T08:26:01.212Z,100161
2017-07-07T08:27:02.702Z,100166
2017-07-07T08:28:00.407Z,100154
2017-07-07T08:29:01.186Z,100162
2017-07-07T08:30:02.227Z,100160
2017-07-07T08:31:01.303Z,100164
2017-07-07T08:32:01.493Z,100160
2017-07-07T08:33:01.258Z,100157
2017-07-07T08:34:02.937Z,100157
2017-07-07T08:35:03.062Z,100143
2017-07-07T08:36:01.335Z,100153
2017-07-07T08:37:01.465Z,100149
2017-07-07T08:38:02.178Z,100153
2017-07-07T08:39:01.054Z,100149
2017-07-07T08:40:01.758Z,100154
2017-07-07T08:41:01.723Z,100142
2017-07-07T08:42:02.121Z,100155
2017-07-07T08:43:02.198Z,100156
2017-07-07T08:44:01.561Z,100149
2017-07-07T08:45:01.336Z,100153
2017-07-07T08:46:02.060Z,100144
2017-07-07T08:47:03.040Z,100152
2017-07-07T08:48:03.192Z,100155
2017-07-07T08:49:02.213Z,100148
2017-07-07T08:50:02.479Z,100159
2017-07-07T08:51:02.643Z,100156
2017-07-07T08:52:02.220Z,100156
2017-07-07T08:53:03.392Z,100155
2017-07-07T08:54:03.446Z,100158
2017-07-07T08:55:04.629Z,100157
2017-07-07T08:56:02.164Z,100157
2017-07-07T08:57:05.564Z,100150
2017-07-07T08:58:02.567Z,100161
2017-07-07T08:59:03.524Z,100164
2017-07-07T09:00:02.764Z,100161
2017-07-07T09:01:03.599Z,100166
2017-07-07T09:02:04.154Z,100157
2017-07-07T09:03:04.556Z,100158
2017-07-07T09:04:03.878Z,100160
2017-07-07T09:05:03.140Z,100157
2017-07-07T09:06:03.830Z,100162
2017-07-07T09:07:05.748Z,100160
2017-07-07T09:08:04.625Z,100169
2017-07-07T09:09:02.665Z,100157
2017-07-07T09:10:04.329Z,100172
2017-07-07T09:11:04.406Z,100159
2017-07-07T09:12:04.700Z,100172
2017-07-07T09:13:03.062Z,100164
2017-07-07T09:14:03.145Z,100167
2017-07-07T09:15:06.625Z,100167
2017-07-07T09:16:05.264Z,100168
2017-07-07T09:17:04.646Z,100147
2017-07-07T09:18:05.291Z,100162
2017-07-07T09:19:05.059Z,100167
2017-07-07T09:20:05.699Z,100159
2017-07-07T09:21:04.838Z,100161
2017-07-07T09:22:04.222Z,100163
2017-07-07T09:23:04.965Z,100172
2017-07-07T09:24:06.416Z,100173
2017-07-07T09:25:03.437Z,100177
2017-07-07T09:26:05.379Z,100182
2017-07-07T09:27:04.491Z,100177
2017-07-07T09:28:03.525Z,100183
2017-07-07T09:29:03.603Z,100174
2017-07-07T09:30:06.537Z,100186
2017-07-07T09:31:04.705Z,100188
2017-07-07T09:32:06.234Z,100185
2017-07-07T09:33:03.742Z,100181
2017-07-07T09:34:05.440Z,100175
2017-07-07T09:35:06.087Z,100170
2017-07-07T09:36:03.975Z,100187
2017-07-07T09:37:06.366Z,100186
2017-07-07T09:38:06.160Z,100169
2017-07-07T09:39:05.880Z,100176
2017-07-07T09:40:05.197Z,100174
2017-07-07T09:41:05.242Z,100175
2017-07-07T09:42:06.051Z,100172
2017-07-07T09:43:06.841Z,100175
2017-07-07T09:44:05.398Z,100171
2017-07-07T09:45:05.085Z,100168
2017-07-07T09:46:07.549Z,100168
2017-07-07T09:47:05.585Z,100175
2017-07-07T09:48:05.333Z,100160
2017-07-07T09:49:07.023Z,100174
2017-07-07T09:50:05.106Z,100177
2017-07-07T09:51:05.494Z,100183
2017-07-07T09:52:06.315Z,100183
2017-07-07T09:53:04.886Z,100187
2017-07-07T09:54:04.951Z,100181
2017-07-07T09:55:05.986Z,100183
2017-07-07T09:56:06.064Z,100173
2017-07-07T09:57:09.041Z,100187
2017-07-07T09:58:05.629Z,100188
2017-07-07T09:59:06.110Z,100189
2017-07-07T10:00:06.872Z,100185
2017-07-07T10:01:05.257Z,100197
2017-07-07T10:02:05.529Z,100188
2017-07-07T10:03:05.506Z,100193
2017-07-07T10:04:06.051Z,100192
2017-07-07T10:05:07.224Z,100189
2017-07-07T10:06:08.043Z,100192
2017-07-07T10:07:05.741Z,100188
2017-07-07T10:08:07.062Z,100189
2017-07-07T10:09:06.459Z,100194
2017-07-07T10:10:08.575Z,100178
2017-07-07T10:11:06.457Z,100186
2017-07-07T10:12:05.706Z,100185
2017-07-07T10:13:09.535Z,100184
2017-07-07T10:14:09.711Z,100183
2017-07-07T10:15:08.344Z,100183
2017-07-07T10:16:08.136Z,100188
2017-07-07T10:17:07.784Z,100176
2017-07-07T10:18:10.254Z,100179
2017-07-07T10:19:08.480Z,100174
2017-07-07T10:20:09.171Z,100183
2017-07-07T10:21:07.325Z,100184
2017-07-07T10:22:07.978Z,100181
2017-07-07T10:23:06.925Z,100177
2017-07-07T10:24:08.926Z,100182
2017-07-07T10:25:07.202Z,100171
2017-07-07T10:26:08.188Z,100174
2017-07-07T10:27:06.576Z,100183
2017-07-07T10:28:08.273Z,100182
2017-07-07T10:29:07.211Z,100179
2017-07-07T10:30:08.238Z,100175
2017-07-07T10:31:09.307Z,100179
2017-07-07T10:32:11.514Z,100172
2017-07-07T10:33:07.618Z,100174
2017-07-07T10:34:08.467Z,100173
2017-07-07T10:35:09.292Z,100172
2017-07-07T10:36:07.050Z,100166
2017-07-07T10:37:07.784Z,100167
2017-07-07T10:38:09.052Z,100166
2017-07-07T10:39:08.527Z,100165
2017-07-07T10:40:07.870Z,100167
2017-07-07T10:41:07.428Z,100174
2017-07-07T10:42:09.701Z,100160
2017-07-07T10:43:07.486Z,100165
2017-07-07T10:44:10.066Z,100162
2017-07-07T10:45:10.229Z,100162
2017-07-07T10:46:08.275Z,100162
2017-07-07T10:47:07.683Z,100164
2017-07-07T10:48:09.381Z,100170
2017-07-07T10:49:10.655Z,100173
2017-07-07T10:50:09.248Z,100171
2017-07-07T10:51:09.991Z,100166
2017-07-07T10:52:09.599Z,100167
2017-07-07T10:53:10.950Z,100175
2017-07-07T10:54:09.095Z,100173
2017-07-07T10:55:09.971Z,100171
2017-07-07T10:56:09.572Z,100168
2017-07-07T10:57:12.265Z,100164
2017-07-07T10:58:09.204Z,100178
2017-07-07T10:59:08.780Z,100184
2017-07-07T11:00:09.276Z,100174
2017-07-07T11:01:10.625Z,100178
2017-07-07T11:02:09.214Z,100175
2017-07-07T11:03:11.050Z,100179
2017-07-07T11:04:09.220Z,100177
2017-07-07T11:05:10.381Z,100162
2017-07-07T11:06:10.342Z,100172
2017-07-07T11:07:11.051Z,100167
2017-07-07T11:08:09.110Z,100178
2017-07-07T11:09:09.778Z,100174
2017-07-07T11:10:09.777Z,100180
2017-07-07T11:11:10.517Z,100170
2017-07-07T11:12:09.428Z,100185
2017-07-07T11:13:10.001Z,100177
2017-07-07T11:14:09.308Z,100185
2017-07-07T11:15:10.018Z,100192
2017-07-07T11:16:09.035Z,100184
2017-07-07T11:17:09.059Z,100184
2017-07-07T11:18:09.224Z,100182
2017-07-07T11:19:09.189Z,100183
2017-07-07T11:20:11.268Z,100185
2017-07-07T11:21:11.157Z,100185
2017-07-07T11:22:10.517Z,100195
2017-07-07T11:23:11.039Z,100191
2017-07-07T11:24:11.835Z,100197
2017-07-07T11:25:12.095Z,100186
2017-07-07T11:26:09.768Z,100204
2017-07-07T11:27:10.502Z,100202
2017-07-07T11:28:09.620Z,100192
2017-07-07T11:29:10.217Z,100199
2017-07-07T11:30:09.754Z,100205
2017-07-07T11:31:10.939Z,100200
2017-07-07T11:32:11.156Z,100205
2017-07-07T11:33:11.409Z,100204
2017-07-07T11:34:09.881Z,100215
2017-07-07T11:35:11.613Z,100208
2017-07-07T11:36:12.258Z,100210
2017-07-07T11:37:13.489Z,100207
2017-07-07T11:38:11.992Z,100209
2017-07-07T11:39:11.388Z,100202
2017-07-07T11:40:10.758Z,100215
2017-07-07T11:41:11.169Z,100204
2017-07-07T11:42:10.836Z,100213
2017-07-07T11:43:11.969Z,100212
2017-07-07T11:44:14.374Z,100209
2017-07-07T11:45:11.174Z,100208
2017-07-07T11:46:12.173Z,100206
2017-07-07T11:47:11.105Z,100208
2017-07-07T11:48:10.586Z,100195
2017-07-07T11:49:12.805Z,100203
2017-07-07T11:50:12.699Z,100208
2017-07-07T11:51:11.397Z,100205
2017-07-07T11:52:11.816Z,100189
2017-07-07T11:53:13.619Z,100202
2017-07-07T11:54:12.401Z,100199
2017-07-07T11:55:16.944Z,100190
2017-07-07T11:56:12.172Z,100199
2017-07-07T11:57:11.567Z,100198
2017-07-07T11:58:11.002Z,100191
2017-07-07T11:59:12.225Z,100205
2017-07-07T12:00:11.992Z,100204
2017-07-07T12:01:11.068Z,100201
2017-07-07T12:02:11.462Z,100209
2017-07-07T12:03:12.185Z,100204
2017-07-07T12:04:11.269Z,100205
2017-07-07T12:05:11.332Z,100203
2017-07-07T12:06:11.369Z,100199
2017-07-07T12:07:12.018Z,100200
2017-07-07T12:08:13.352Z,100205
2017-07-07T12:09:14.137Z,100193
2017-07-07T12:10:12.173Z,100199
2017-07-07T12:11:14.875Z,100202
2017-07-07T12:12:13.583Z,100188
2017-07-07T12:13:13.050Z,100192
2017-07-07T12:14:12.056Z,100204
2017-07-07T12:15:13.396Z,100199
2017-07-07T12:16:12.791Z,100193
2017-07-07T12:17:14.341Z,100196
2017-07-07T12:18:12.916Z,100197
2017-07-07T12:19:12.021Z,100195
2017-07-07T12:20:13.264Z,100205
2017-07-07T12:21:13.719Z,100199
2017-07-07T12:22:13.080Z,100203
2017-07-07T12:23:12.728Z,100203
2017-07-07T12:24:13.862Z,100194
2017-07-07T12:25:13.086Z,100191
2017-07-07T12:26:13.940Z,100189
2017-07-07T12:27:13.658Z,100193
2017-07-07T12:28:14.323Z,100195
2017-07-07T12:29:15.397Z,100198